KBWD/BWD METAR and TAF weather

Enter ICAO airport designator
Station Type Date Time Source
KBWD METAR 2021/05/11 01:55 UTC NOAA

KBWD 110155Z AUTO 02006KT 10SM BKN012 13/12 A3000 RMK AO1


Station Type Date Time Source
KBWD Decoded METAR 2021/05/11 01:55 UTC NOAA

Brownwood, Brownwood Regional Airport, TX, United States (KBWD) 31-48N 098-57W
May 10, 2021 - 09:55 PM EDT / 2021.05.11 0155 UTC
Wind: from the NNE (020 degrees) at 7 MPH (6 KT):0
Visibility: 10 mile(s):0
Sky conditions: mostly cloudy
Temperature: 55 F (13 C)
Dew Point: 53 F (12 C)
Relative Humidity: 93%
Pressure (altimeter): 30 in. Hg (1015 hPa)
ob: KBWD 110155Z AUTO 02006KT 10SM BKN012 13/12 A3000 RMK AO1
cycle: 2

Station Type Date Time Source
KBWD TAF UTC NOAA

Error!

Example: see airport list